^^
Station Historical Data
Daily Summary for January 23, 2018 Units:  Metric    English   Both
« Previous Day
Next Day »
Daily Weekly Monthly Yearly Custom
  High: Low: Average:
Temperature: -17.8 °C 15 °C 20 °C
Dew Point: -17.8 °C 1.7 °C 10.1 °C
Humidity: Humidity% 17% 57%
Wind Speed: 0km/h 0km/h 9.2km/h
Wind Gust: 0km/h - -
Wind- - South
Pressure: 0 hPa 1005 hPa -
Precipitation: 0 mm    
Historical Graphs
 
 
Tabular Data for January 23, 2018
Time Temperature Dew Point Pressure Wind Wind Speed Wind Gust Humidity Rainfall Rate (Hourly) solar Conditions
-17.8 °C -17.8 °C 0 hPa Calm     Humidity% 0 mm SolarRadiationWatts/m^2 W/m2 Conditions
00:01 18.4 °C 11.7 °C 1010 hPa South 17.7 km/h 17.7 km/h 65% 0 mm 0.0 W/m2
00:06 18.3 °C 11.6 °C 1010 hPa SSW 9.7 km/h 14.5 km/h 65% 0 mm 0.0 W/m2
00:11 18.2 °C 12 °C 1010 hPa South 11.1 km/h 20.9 km/h 67% 0 mm 0.0 W/m2
00:21 18.1 °C 11.6 °C 1009.7 hPa SSW 14.3 km/h 16.1 km/h 66% 0 mm 0.0 W/m2
00:27 18 °C 11.6 °C 1009.7 hPa South 16.3 km/h 20.9 km/h 66% 0 mm 0.0 W/m2
00:32 17.9 °C 11.7 °C 1010 hPa South 14.3 km/h 19.3 km/h 67% 0 mm 0.0 W/m2
00:37 17.8 °C 11.4 °C 1009.7 hPa South 13 km/h 14.5 km/h 66% 0 mm 0.0 W/m2
00:42 17.8 °C 11.4 °C 1010 hPa South 16.3 km/h 20.9 km/h 66% 0 mm 0.0 W/m2
00:47 17.7 °C 11.5 °C 1010 hPa South 17.7 km/h 20.9 km/h 67% 0 mm 0.0 W/m2
00:52 17.6 °C 11.6 °C 1009.7 hPa SSW 16.3 km/h 19.3 km/h 68% 0 mm 0.0 W/m2
01:02 17.4 °C 11.4 °C 1009.7 hPa SSW 13 km/h 19.3 km/h 68% 0 mm 0.0 W/m2
01:07 17.3 °C 11.6 °C 1009.4 hPa SSW 17.7 km/h 20.9 km/h 69% 0 mm 0.0 W/m2
01:12 17.2 °C 11.5 °C 1009.7 hPa SSW 17.7 km/h 19.3 km/h 69% 0 mm 0.0 W/m2
01:22 17.1 °C 11.1 °C 1009.7 hPa South 17.7 km/h 20.9 km/h 68% 0 mm 0.0 W/m2
01:27 17.1 °C 11.4 °C 1009.7 hPa South 17.7 km/h 20.9 km/h 69% 0 mm 0.0 W/m2
01:37 17 °C 11.3 °C 1009.7 hPa SSW 17.7 km/h 17.7 km/h 69% 0 mm 0.0 W/m2
01:47 16.9 °C 11.2 °C 1009.4 hPa South 13 km/h 16.1 km/h 69% 0 mm 0.0 W/m2
01:52 16.9 °C 11.4 °C 1009.7 hPa SSW 11.1 km/h 14.5 km/h 70% 0 mm 0.0 W/m2
01:57 16.9 °C 11.4 °C 1009.7 hPa South 9.7 km/h 14.5 km/h 70% 0 mm 0.0 W/m2
02:02 16.8 °C 11.3 °C 1009.7 hPa South 7.9 km/h 11.3 km/h 70% 0 mm 0.0 W/m2
02:07 16.8 °C 11.5 °C 1009.7 hPa South 4.7 km/h 8 km/h 71% 0 mm 0.0 W/m2
02:17 16.6 °C 11.3 °C 1010 hPa SSW 6.4 km/h 9.7 km/h 71% 0 mm 0.0 W/m2
02:22 16.6 °C 11.5 °C 1009.7 hPa SSW 4.7 km/h 6.4 km/h 72% 0 mm 0.0 W/m2
02:27 16.6 °C 11.7 °C 1009.7 hPa SSW 7.9 km/h 11.3 km/h 73% 0 mm 0.0 W/m2
02:32 16.5 °C 11.6 °C 1009.7 hPa SSW 9.7 km/h 9.7 km/h 73% 0 mm 0.0 W/m2
02:37 16.4 °C 11.5 °C 1009.4 hPa SSW 9.7 km/h 9.7 km/h 73% 0 mm 0.0 W/m2
02:43 16.4 °C 11.5 °C 1009.4 hPa SSW 7.9 km/h 11.3 km/h 73% 0 mm 0.0 W/m2
02:48 16.3 °C 11.5 °C 1009.4 hPa SSW 6.4 km/h 9.7 km/h 73% 0 mm 0.0 W/m2
02:53 16.3 °C 11.5 °C 1009.7 hPa South 11.1 km/h 12.9 km/h 73% 0 mm 0.0 W/m2
02:58 16.3 °C 11.2 °C 1009.4 hPa South 9.7 km/h 11.3 km/h 72% 0 mm 0.0 W/m2
03:13 16.3 °C 11.5 °C 1009 hPa South 11.1 km/h 14.5 km/h 73% 0 mm 0.0 W/m2
03:19 16.2 °C 11.4 °C 1009 hPa South 9.7 km/h 12.9 km/h 73% 0 mm 0.0 W/m2
03:28 16.1 °C 11.3 °C 1009 hPa South 16.3 km/h 16.3 km/h 73% 0 mm 0.0 W/m2
03:33 16.1 °C 11.3 °C 1009 hPa South 9.7 km/h 16.1 km/h 73% 0 mm 0.0 W/m2
03:38 16.1 °C 11.3 °C 1009 hPa South 9.7 km/h 12.9 km/h 73% 0 mm 0.0 W/m2
03:43 16.1 °C 11.3 °C 1009 hPa South 6.4 km/h 9.7 km/h 73% 0 mm 0.0 W/m2
03:59 15.9 °C 11.3 °C 1009 hPa South 9.7 km/h 12.9 km/h 74% 0 mm 0.0 W/m2
04:05 15.9 °C 11.3 °C 1009 hPa South 7.9 km/h 11.3 km/h 74% 0 mm 0.0 W/m2
04:10 15.9 °C 11.3 °C 1009 hPa South 11.1 km/h 11.3 km/h 74% 0 mm 0.0 W/m2
04:34 15.7 °C 11.3 °C 1009 hPa Calm     75% 0 mm 0.0 W/m2
04:59 15.4 °C 11.4 °C 1008.7 hPa Calm     77% 0 mm 0.0 W/m2
05:09 15.4 °C 11.4 °C 1008.7 hPa Calm     77% 0 mm 0.0 W/m2
05:14 15.3 °C 11.3 °C 1008.7 hPa Calm     77% 0 mm 0.0 W/m2
05:20 15.3 °C 11.5 °C 1008.7 hPa Calm     78% 0 mm 0.0 W/m2
05:25 15.2 °C 11.4 °C 1008.7 hPa Calm     78% 0 mm 0.0 W/m2
05:30 15.2 °C 11.4 °C 1008.7 hPa Calm     78% 0 mm 0.0 W/m2
05:35 15.3 °C 11.5 °C 1008.7 hPa Calm     78% 0 mm 0.0 W/m2
05:40 15.2 °C 11.4 °C 1009 hPa Calm     78% 0 mm 0.0 W/m2
05:46 15.1 °C 11.3 °C 1009 hPa Calm     78% 0 mm 0.0 W/m2
05:51 15.1 °C 11.3 °C 1009 hPa Calm     78% 0 mm 0.0 W/m2
06:02 15 °C 11.4 °C 1009 hPa Calm     79% 0 mm 0.0 W/m2
06:17 15.1 °C 11.7 °C 1009 hPa Calm     80% 0 mm 5.0 W/m2
06:22 15.1 °C 11.7 °C 1009 hPa Calm     80% 0 mm 7.0 W/m2
06:43 15.6 °C 11.8 °C 1009.7 hPa Calm     78% 0 mm 32.0 W/m2
06:53 16.1 °C 12.1 °C 1009.7 hPa Calm     77% 0 mm 62.0 W/m2
06:58 16.3 °C 11.9 °C 1010 hPa Calm     75% 0 mm 79.0 W/m2
07:09 16.6 °C 11.7 °C 1010 hPa Calm     73% 0 mm 114.0 W/m2
07:24 16.9 °C 12 °C 1010 hPa Calm     73% 0 mm 185.0 W/m2
07:33 17.1 °C 12 °C 1010.4 hPa Calm     72% 0 mm 227.0 W/m2
07:43 17.5 °C 11.7 °C 1010 hPa Calm     69% 0 mm 265.0 W/m2
07:48 17.6 °C 11.6 °C 1010 hPa Calm     68% 0 mm 285.0 W/m2
07:53 17.7 °C 11.5 °C 1010 hPa Calm     67% 0 mm 301.0 W/m2
08:04 17.8 °C 11.4 °C 1010 hPa Calm     66% 0 mm 336.0 W/m2
08:15 17.9 °C 11.2 °C 1010 hPa ESE 11.1 km/h 11.3 km/h 65% 0 mm 374.0 W/m2
08:25 18.1 °C 11.4 °C 1010 hPa Calm     65% 0 mm 408.0 W/m2
08:31 18.2 °C 11.3 °C 1010 hPa Calm     64% 0 mm 425.0 W/m2
08:40 18.4 °C 11.2 °C 1010 hPa Calm     63% 0 mm 461.0 W/m2
08:45 18.4 °C 11.2 °C 1010 hPa Calm     63% 0 mm 478.0 W/m2
08:51 18.5 °C 11.3 °C 1010 hPa Calm     63% 0 mm 496.0 W/m2
08:57 18.7 °C 11.5 °C 1010 hPa Calm     63% 0 mm 517.0 W/m2
09:09 18.9 °C 11.5 °C 1010 hPa Calm     62% 0 mm 547.0 W/m2
09:19 19.2 °C 11.2 °C 1009.7 hPa Calm     60% 0 mm 580.0 W/m2
09:29 19.6 °C 11.1 °C 1009.7 hPa Calm     58% 0 mm 617.0 W/m2
09:49 20 °C 11.2 °C 1009.7 hPa Calm     57% 0 mm 677.0 W/m2
10:06 20.5 °C 11.1 °C 1009.4 hPa SE 9.7 km/h 12.9 km/h 55% 0 mm 733.0 W/m2
10:11 20.5 °C 11.1 °C 1009.4 hPa SE 6.4 km/h 11.3 km/h 55% 0 mm 745.0 W/m2
10:17 20.7 °C 11.1 °C 1009.4 hPa Calm     54% 0 mm 763.0 W/m2
10:22 21 °C 11.1 °C 1009 hPa Calm     53% 0 mm 777.0 W/m2
10:28 21.2 °C 11 °C 1009 hPa SE 9.7 km/h 9.7 km/h 52% 0 mm 789.0 W/m2
10:33 21.3 °C 11 °C 1009 hPa SE 4.7 km/h 9.7 km/h 52% 0 mm 803.0 W/m2
10:52 22 °C 10.5 °C 1009 hPa Calm     48% 0 mm 853.0 W/m2
10:58 22.2 °C 10.7 °C 1009 hPa Calm   16.1 km/h 48% 0 mm 858.0 W/m2
11:03 22.3 °C 10.1 °C 1009 hPa SE 6.4 km/h 11.3 km/h 46% 0 mm 870.0 W/m2
11:08 22.5 °C 10 °C 1009 hPa Calm     45% 0 mm 879.0 W/m2
11:18 23.1 °C 9.5 °C 1009 hPa SSE 11.1 km/h 14.5 km/h 42% 0 mm 898.0 W/m2
11:30 23.4 °C 9.4 °C 1009 hPa Calm   8 km/h 41% 0 mm 921.0 W/m2
11:40 23.8 °C 9.8 °C 1008.7 hPa SSE 9.7 km/h 16.1 km/h 41% 0 mm 932.0 W/m2
11:45 23.9 °C 9.5 °C 1008.7 hPa Calm     40% 0 mm 939.0 W/m2
11:52 24 °C 9.9 °C 1008.7 hPa SSE 7.9 km/h 11.3 km/h 41% 0 mm 947.0 W/m2
12:03 24.4 °C 9.2 °C 1008.7 hPa South 4.7 km/h 9.7 km/h 38% 0 mm 960.0 W/m2
12:23 25.1 °C 9 °C 1008.4 hPa South 13 km/h 16.1 km/h 36% 0 mm 977.0 W/m2
12:32 25.2 °C 8.2 °C 1008.4 hPa Calm     34% 0 mm 981.0 W/m2
12:50 25.8 °C 7.9 °C 1008 hPa Calm   9.7 km/h 32% 0 mm 988.0 W/m2
13:01 26.4 °C 7.9 °C 1007.7 hPa South 9.7 km/h 14.5 km/h 31% 0 mm 981.0 W/m2
13:15 26.6 °C 7.1 °C 1007.7 hPa South 14.3 km/h 14.5 km/h 29% 0 mm 984.0 W/m2
13:21 26.9 °C 7.4 °C 1007.7 hPa SSW 6.4 km/h 12.9 km/h 29% 0 mm 983.0 W/m2
13:27 27.1 °C 7.5 °C 1007.7 hPa SSW 11.1 km/h 14.5 km/h 29% 0 mm 981.0 W/m2
13:32 27.2 °C 7.1 °C 1007.3 hPa SSW 9.7 km/h 14.5 km/h 28% 0 mm 979.0 W/m2
13:49 27.2 °C 6.6 °C 1007.3 hPa SSW 7.9 km/h 8 km/h 27% 0 mm 972.0 W/m2
14:57 28.2 °C 5.7 °C 1006.3 hPa Calm     24% 0 mm 879.0 W/m2
16:23 29.2 °C 3.9 °C 1005.6 hPa SW 13 km/h 20.9 km/h 20% 0 mm 664.0 W/m2
16:37 28.9 °C 3 °C 1005.6 hPa SSW 7.9 km/h 12.9 km/h 19% 0 mm 617.0 W/m2
17:06 29.4 °C 2.6 °C 1005.3 hPa Calm   11.3 km/h 18% 0 mm 520.0 W/m2
17:16 29.3 °C 1.7 °C 1005.3 hPa Calm   9.7 km/h 17% 0 mm 487.0 W/m2
17:25 29.3 °C 1.7 °C 1005.3 hPa Calm   12.9 km/h 17% 0 mm 454.0 W/m2
17:31 29.3 °C 1.7 °C 1005 hPa Calm   9.7 km/h 17% 0 mm 441.0 W/m2
17:41 29.5 °C 1.9 °C 1005.3 hPa SSW 16.3 km/h 19.3 km/h 17% 0 mm 399.0 W/m2
17:57 29.5 °C 1.9 °C 1005 hPa SSW 6.4 km/h 6.4 km/h 17% 0 mm 350.0 W/m2
18:25 29.3 °C 4.7 °C 1005.3 hPa SSW 11.1 km/h 20.9 km/h 21% 0 mm 251.0 W/m2
18:40 29.2 °C 5.3 °C 1005.3 hPa SSW 11.1 km/h 22.5 km/h 22% 0 mm 188.0 W/m2
19:25 28.3 °C 6.4 °C 1005.3 hPa South 16.3 km/h 22.5 km/h 25% 0 mm 18.0 W/m2
19:40 28 °C 6.7 °C 1005.6 hPa South 17.7 km/h 22.5 km/h 26% 0 mm 9.0 W/m2
19:54 27.5 °C 6.3 °C 1005.6 hPa South 20.9 km/h 29 km/h 26% 0 mm 0.0 W/m2
20:06 27.3 °C 6.7 °C 1005.6 hPa SSE 27.4 km/h 32.2 km/h 27% 0 mm 0.0 W/m2
20:21 26.9 °C 6.3 °C 1006 hPa South 27.4 km/h 30.6 km/h 27% 0 mm 0.0 W/m2
20:52 26.2 °C 10.4 °C 1006 hPa SSW 30.6 km/h 33.8 km/h 37% 0 mm 0.0 W/m2
21:22 24.4 °C 11.7 °C 1006.3 hPa South 19.5 km/h 33.8 km/h 45% 0 mm 0.0 W/m2
21:36 23.8 °C 12.1 °C 1006.7 hPa South 30.6 km/h 32.2 km/h 48% 0 mm 0.0 W/m2
21:45 23.4 °C 12.4 °C 1007 hPa South 32 km/h 33.8 km/h 50% 0 mm 0.0 W/m2
22:13 22.5 °C 12.4 °C 1007.3 hPa South 33.8 km/h 35.4 km/h 53% 0 mm 0.0 W/m2
22:28 22.1 °C 12.6 °C 1007.3 hPa South 27.4 km/h 30.6 km/h 55% 0 mm 0.0 W/m2
22:39 21.7 °C 12.5 °C 1007.7 hPa South 14.3 km/h 29 km/h 56% 0 mm 0.0 W/m2
22:47 21.6 °C 12.4 °C 1008 hPa South 20.9 km/h 29 km/h 56% 0 mm 0.0 W/m2
22:52 21.5 °C 12.4 °C 1008 hPa South 25.9 km/h 30.6 km/h 56% 0 mm 0.0 W/m2
23:02 21.3 °C 12.7 °C 1008 hPa South 28.8 km/h 32.2 km/h 58% 0 mm 0.0 W/m2
23:07 21.2 °C 12.6 °C 1008 hPa South 22.7 km/h 35.4 km/h 58% 0 mm 0.0 W/m2
23:12 21.1 °C 12.8 °C 1008 hPa South 28.8 km/h 32.2 km/h 59% 0 mm 0.0 W/m2
23:17 21 °C 12.7 °C 1008 hPa South 30.6 km/h 30.6 km/h 59% 0 mm 0.0 W/m2
23:27 20.8 °C 12.7 °C 1008 hPa South 20.9 km/h 29 km/h 60% 0 mm 0.0 W/m2
23:37 20.7 °C 12.7 °C 1008 hPa South 19.5 km/h 27.4 km/h 60% 0 mm 0.0 W/m2
23:42 20.6 °C 12.3 °C 1008 hPa South 20.9 km/h 25.7 km/h 59% 0 mm 0.0 W/m2
23:47 20.5 °C 12.2 °C 1008 hPa South 17.7 km/h 27.4 km/h 59% 0 mm 0.0 W/m2
23:52 20.5 °C 12.5 °C 1008 hPa South 16.3 km/h 24.1 km/h 60% 0 mm 0.0 W/m2
23:57 20.4 °C 12.4 °C 1008 hPa South 11.1 km/h 19.3 km/h 60% 0 mm 0.0 W/m2
Canyon Roadhouse, Fishriver Canyon, Namibia
Compliments of Weather Underground - 2.25 mb